createdAt,value
2023-11-29T00:03:17.321Z,79.90
2023-11-29T00:08:21.158Z,79.94
2023-11-29T00:13:23.373Z,80.02
2023-11-29T00:18:25.653Z,80.04
2023-11-29T00:23:27.785Z,80.14
2023-11-29T00:28:34.482Z,80.32
2023-11-29T00:33:36.566Z,80.28
2023-11-29T00:38:38.699Z,80.38
2023-11-29T00:43:40.743Z,80.61
2023-11-29T00:48:42.836Z,80.79
2023-11-29T00:53:45.282Z,80.79
2023-11-29T00:58:47.372Z,80.74
2023-11-29T01:03:49.571Z,80.88
2023-11-29T01:08:52.483Z,80.95
2023-11-29T01:13:54.792Z,81.13
2023-11-29T01:18:58.954Z,81.33
2023-11-29T01:24:01.386Z,81.35
2023-11-29T01:29:03.533Z,81.42
2023-11-29T01:34:05.770Z,81.38
2023-11-29T01:39:08.225Z,81.22
2023-11-29T01:44:10.623Z,80.85
2023-11-29T01:49:13.743Z,80.77
2023-11-29T01:54:17.508Z,80.74
2023-11-29T01:59:19.770Z,80.43
2023-11-29T02:04:22.077Z,79.94
2023-11-29T02:09:25.061Z,79.90
2023-11-29T02:14:27.216Z,79.99
2023-11-29T02:19:29.387Z,79.83
2023-11-29T02:24:40.794Z,79.79
2023-11-29T02:29:44.109Z,79.67
2023-11-29T02:34:46.152Z,79.61
2023-11-29T02:39:48.212Z,79.33
2023-11-29T02:44:50.802Z,78.95
2023-11-29T02:49:52.919Z,79.33
2023-11-29T02:54:55.046Z,79.57
2023-11-29T02:59:57.231Z,79.55
2023-11-29T03:04:59.349Z,79.30
2023-11-29T03:10:01.389Z,79.57
2023-11-29T03:15:03.685Z,79.39
2023-11-29T03:20:09.075Z,79.66
2023-11-29T03:25:11.189Z,79.84
2023-11-29T03:30:14.038Z,79.88
2023-11-29T03:35:16.265Z,80.07
2023-11-29T03:40:18.389Z,80.31
2023-11-29T03:45:20.574Z,80.49
2023-11-29T03:50:23.563Z,80.53
2023-11-29T03:55:25.785Z,80.88
2023-11-29T04:00:27.852Z,81.16
2023-11-29T04:05:30.128Z,81.38
2023-11-29T04:10:35.344Z,81.31
2023-11-29T04:15:37.920Z,81.25
2023-11-29T04:20:40.253Z,81.29
2023-11-29T04:25:42.503Z,81.23
2023-11-29T04:30:44.927Z,80.61
2023-11-29T04:35:47.172Z,80.62
2023-11-29T04:40:49.409Z,80.63
2023-11-29T04:45:51.754Z,80.75
2023-11-29T04:50:53.850Z,80.98
2023-11-29T04:55:57.067Z,80.97
2023-11-29T05:00:59.108Z,80.31
2023-11-29T05:06:01.189Z,80.11
2023-11-29T05:11:08.339Z,80.38
2023-11-29T05:16:10.606Z,80.36
2023-11-29T05:21:12.745Z,80.63
2023-11-29T05:26:15.637Z,81.01
2023-11-29T05:31:19.645Z,80.85
2023-11-29T05:36:22.792Z,80.89
2023-11-29T05:41:24.992Z,80.88
2023-11-29T05:46:29.778Z,80.43
2023-11-29T05:51:31.968Z,80.30
2023-11-29T05:56:34.027Z,80.06
2023-11-29T06:01:38.287Z,80.17
2023-11-29T06:06:40.428Z,80.13
2023-11-29T06:11:42.872Z,80.17
2023-11-29T06:16:45.050Z,80.26
2023-11-29T06:21:47.661Z,80.37
2023-11-29T06:26:50.651Z,80.47
2023-11-29T06:31:52.873Z,80.45
2023-11-29T06:36:55.165Z,80.54
2023-11-29T06:41:57.211Z,80.52
2023-11-29T06:47:00.400Z,80.48
2023-11-29T06:52:04.835Z,80.47
2023-11-29T06:57:07.082Z,80.42
2023-11-29T07:02:09.278Z,80.26
2023-11-29T07:07:12.522Z,79.77
2023-11-29T07:12:14.713Z,79.69
2023-11-29T07:17:16.964Z,79.69
2023-11-29T07:22:19.601Z,79.64
2023-11-29T07:27:21.837Z,79.38
2023-11-29T07:32:25.995Z,79.73
2023-11-29T07:37:28.901Z,80.01
2023-11-29T07:43:01.895Z,79.79
2023-11-29T07:48:34.239Z,79.77
2023-11-29T07:53:36.663Z,79.86
2023-11-29T07:58:39.465Z,79.78
2023-11-29T08:03:42.002Z,79.75
2023-11-29T08:08:44.230Z,79.25
2023-11-29T08:13:46.408Z,79.30
2023-11-29T08:18:48.542Z,79.24
2023-11-29T08:23:50.793Z,78.97
2023-11-29T08:28:52.967Z,78.79
2023-11-29T08:33:55.124Z,78.31
2023-11-29T08:38:57.820Z,78.60
2023-11-29T08:44:00.010Z,78.57
2023-11-29T08:49:02.178Z,78.02
2023-11-29T08:54:05.174Z,77.83
2023-11-29T08:59:07.382Z,77.81
2023-11-29T09:04:09.467Z,77.77
2023-11-29T09:09:13.687Z,77.30
2023-11-29T09:14:15.788Z,76.97
2023-11-29T09:19:18.018Z,76.89
2023-11-29T09:24:20.125Z,76.89
2023-11-29T09:29:27.414Z,77.05
2023-11-29T09:34:29.808Z,77.12
2023-11-29T09:39:32.014Z,76.91
2023-11-29T09:44:37.878Z,76.74
2023-11-29T09:49:40.451Z,76.70
2023-11-29T09:54:44.318Z,76.59
2023-11-29T09:59:46.450Z,75.95
2023-11-29T10:04:48.861Z,75.35
2023-11-29T10:09:51.098Z,75.48
2023-11-29T10:15:01.490Z,74.87
2023-11-29T10:20:09.228Z,74.59
2023-11-29T10:25:19.018Z,74.48
2023-11-29T10:30:21.391Z,74.45
2023-11-29T10:35:26.396Z,75.16
2023-11-29T10:40:29.453Z,74.10
2023-11-29T10:45:36.325Z,73.79
2023-11-29T10:50:40.424Z,73.00
2023-11-29T10:55:45.392Z,73.42
2023-11-29T11:00:47.779Z,73.30
2023-11-29T11:05:50.102Z,71.67
2023-11-29T11:10:52.578Z,69.44
2023-11-29T11:15:57.240Z,69.72
2023-11-29T11:21:01.388Z,68.44
2023-11-29T11:26:11.258Z,69.19
2023-11-29T11:31:13.833Z,68.01
2023-11-29T11:36:18.217Z,67.95
2023-11-29T11:41:20.624Z,68.28
2023-11-29T11:46:22.993Z,68.21
2023-11-29T11:51:25.158Z,68.33
2023-11-29T11:56:28.544Z,68.04
2023-11-29T12:01:32.006Z,67.88
2023-11-29T12:06:34.561Z,67.83
2023-11-29T12:11:38.448Z,67.85
2023-11-29T12:16:40.706Z,68.45
2023-11-29T12:21:44.444Z,68.09
2023-11-29T12:26:48.227Z,68.09
2023-11-29T12:31:53.402Z,68.14
2023-11-29T12:36:58.860Z,68.21
2023-11-29T12:42:04.746Z,68.91
2023-11-29T12:47:07.354Z,68.33
2023-11-29T12:52:09.486Z,68.41
2023-11-29T12:57:12.407Z,68.60
2023-11-29T13:02:14.733Z,68.70
2023-11-29T13:07:16.998Z,68.49
2023-11-29T13:12:19.512Z,68.59
2023-11-29T13:17:24.470Z,68.84
2023-11-29T13:22:26.945Z,69.09
2023-11-29T13:27:29.529Z,69.34
2023-11-29T13:32:32.352Z,70.05
2023-11-29T13:37:34.730Z,70.02
2023-11-29T13:42:36.994Z,70.55
2023-11-29T13:47:40.856Z,70.39
2023-11-29T13:52:43.752Z,70.79
2023-11-29T13:57:46.585Z,70.66
2023-11-29T14:02:49.308Z,70.93
2023-11-29T14:07:52.822Z,71.17
2023-11-29T14:12:56.459Z,71.14
2023-11-29T14:17:59.129Z,71.25
2023-11-29T14:23:01.395Z,71.26
2023-11-29T14:28:06.684Z,70.89
2023-11-29T14:33:14.642Z,71.12
2023-11-29T14:38:16.860Z,71.37
2023-11-29T14:43:19.204Z,71.27
2023-11-29T14:48:22.615Z,71.20
2023-11-29T14:53:24.848Z,71.51
2023-11-29T14:58:27.189Z,71.75
2023-11-29T15:03:29.994Z,72.10
2023-11-29T15:08:32.392Z,72.30
2023-11-29T15:13:39.050Z,72.70
2023-11-29T15:18:44.317Z,72.95
2023-11-29T15:23:46.724Z,73.02
2023-11-29T15:28:49.463Z,73.21
2023-11-29T15:33:51.746Z,73.23
2023-11-29T15:38:54.208Z,73.18
2023-11-29T15:43:56.318Z,73.32
2023-11-29T15:48:58.718Z,73.48
2023-11-29T15:54:00.886Z,73.54
2023-11-29T15:59:03.150Z,73.70
2023-11-29T16:04:05.845Z,74.17
2023-11-29T16:09:09.207Z,74.47
2023-11-29T16:14:11.495Z,74.78
2023-11-29T16:19:13.584Z,75.05
2023-11-29T16:24:15.834Z,75.15
2023-11-29T16:29:17.988Z,75.28
2023-11-29T16:34:20.369Z,75.50
2023-11-29T16:39:22.577Z,75.64
2023-11-29T16:44:24.794Z,75.97
2023-11-29T16:49:27.063Z,76.24
2023-11-29T16:54:29.301Z,76.61
2023-11-29T16:59:31.615Z,76.85
2023-11-29T17:04:33.787Z,77.12
2023-11-29T17:09:36.172Z,77.04
2023-11-29T17:14:38.426Z,77.52
2023-11-29T17:19:40.554Z,77.68
2023-11-29T17:24:43.304Z,77.56
2023-11-29T17:29:45.623Z,77.55
2023-11-29T17:34:48.471Z,77.73
2023-11-29T17:39:50.639Z,77.99
2023-11-29T17:44:53.146Z,77.56
2023-11-29T17:49:56.301Z,78.02
2023-11-29T17:54:58.508Z,78.38
2023-11-29T18:00:01.501Z,77.92
2023-11-29T18:05:03.782Z,78.07
2023-11-29T18:10:06.263Z,78.08
2023-11-29T18:15:08.970Z,78.20
2023-11-29T18:20:12.221Z,77.84
2023-11-29T18:25:14.531Z,77.53
2023-11-29T18:30:17.106Z,77.61
2023-11-29T18:35:19.360Z,77.87
2023-11-29T18:40:21.524Z,77.96
2023-11-29T18:45:23.590Z,78.37
2023-11-29T18:50:25.657Z,78.24
2023-11-29T18:55:30.532Z,78.36
2023-11-29T19:00:32.736Z,78.59
2023-11-29T19:05:35.479Z,78.45
2023-11-29T19:10:37.572Z,78.42
2023-11-29T19:15:39.783Z,78.53
2023-11-29T19:20:42.048Z,78.42
2023-11-29T19:25:44.749Z,78.30
2023-11-29T19:30:47.086Z,78.11
2023-11-29T19:35:49.404Z,78.04
2023-11-29T19:40:51.679Z,78.35
2023-11-29T19:45:56.060Z,78.61
2023-11-29T19:50:58.200Z,78.63
2023-11-29T19:56:00.253Z,78.56
2023-11-29T20:01:02.545Z,78.51
2023-11-29T20:06:05.081Z,78.40
2023-11-29T20:11:08.584Z,78.26
2023-11-29T20:16:11.657Z,78.23
2023-11-29T20:21:14.207Z,78.28
2023-11-29T20:26:16.236Z,78.42
2023-11-29T20:31:24.839Z,78.39
2023-11-29T20:36:27.198Z,78.05
2023-11-29T20:41:32.111Z,78.21
2023-11-29T20:46:34.104Z,78.71
2023-11-29T20:51:36.179Z,79.24
2023-11-29T20:56:38.104Z,79.02
2023-11-29T21:01:40.825Z,78.77
2023-11-29T21:06:42.818Z,78.66
2023-11-29T21:11:44.795Z,78.33
2023-11-29T21:16:47.225Z,78.08
2023-11-29T21:21:49.184Z,77.91
2023-11-29T21:26:51.238Z,77.60
2023-11-29T21:31:54.372Z,77.38
2023-11-29T21:36:56.542Z,77.11
2023-11-29T21:41:58.800Z,76.99
2023-11-29T21:47:01.371Z,76.88
2023-11-29T21:52:03.551Z,76.92
2023-11-29T21:57:05.532Z,76.82
2023-11-29T22:02:08.223Z,76.91
2023-11-29T22:07:14.671Z,76.84
2023-11-29T22:12:16.799Z,76.94
2023-11-29T22:17:18.969Z,76.84
2023-11-29T22:22:20.922Z,76.97
2023-11-29T22:27:22.932Z,76.92
2023-11-29T22:32:25.525Z,76.68
2023-11-29T22:37:29.078Z,76.69
2023-11-29T22:42:31.097Z,76.67
2023-11-29T22:47:33.139Z,76.61
2023-11-29T22:52:35.111Z,76.48
2023-11-29T22:57:37.217Z,76.31
2023-11-29T23:02:39.379Z,76.17
2023-11-29T23:07:41.483Z,75.89
2023-11-29T23:12:44.585Z,75.96
2023-11-29T23:17:46.642Z,75.91
2023-11-29T23:22:49.494Z,75.98
2023-11-29T23:27:52.010Z,76.06
2023-11-29T23:32:54.535Z,76.24
2023-11-29T23:37:56.717Z,76.21
2023-11-29T23:42:59.048Z,76.26
2023-11-29T23:48:02.542Z,76.22
2023-11-29T23:53:04.843Z,76.26
2023-11-29T23:58:06.980Z,76.36
